sensor_id;sensor_type;location;lat;lon;timestamp;P1;durP1;ratioP1;P2;durP2;ratioP2
2111;SDS011;1062;52.538;13.400;2023-12-20T00:01:32;7.30;;;6.00;;
2111;SDS011;1062;52.538;13.400;2023-12-20T00:03:57;7.20;;;5.10;;
2111;SDS011;1062;52.538;13.400;2023-12-20T00:06:23;5.90;;;4.77;;
2111;SDS011;1062;52.538;13.400;2023-12-20T00:08:49;7.70;;;5.90;;
2111;SDS011;1062;52.538;13.400;2023-12-20T00:11:14;5.80;;;4.87;;
2111;SDS011;1062;52.538;13.400;2023-12-20T00:13:40;6.77;;;6.07;;
2111;SDS011;1062;52.538;13.400;2023-12-20T00:16:05;7.20;;;6.50;;
2111;SDS011;1062;52.538;13.400;2023-12-20T00:18:31;6.80;;;5.60;;
2111;SDS011;1062;52.538;13.400;2023-12-20T00:20:56;5.43;;;4.93;;
2111;SDS011;1062;52.538;13.400;2023-12-20T00:23:22;6.90;;;5.83;;
2111;SDS011;1062;52.538;13.400;2023-12-20T00:25:48;7.40;;;5.90;;
2111;SDS011;1062;52.538;13.400;2023-12-20T00:28:14;6.70;;;6.00;;
2111;SDS011;1062;52.538;13.400;2023-12-20T00:30:39;5.57;;;4.97;;
2111;SDS011;1062;52.538;13.400;2023-12-20T00:33:05;6.23;;;5.60;;
2111;SDS011;1062;52.538;13.400;2023-12-20T00:35:30;7.10;;;5.20;;
2111;SDS011;1062;52.538;13.400;2023-12-20T00:37:56;6.70;;;5.40;;
2111;SDS011;1062;52.538;13.400;2023-12-20T00:40:22;7.50;;;5.90;;
2111;SDS011;1062;52.538;13.400;2023-12-20T00:42:49;6.20;;;5.17;;
2111;SDS011;1062;52.538;13.400;2023-12-20T00:45:14;5.37;;;4.83;;
2111;SDS011;1062;52.538;13.400;2023-12-20T00:47:40;6.50;;;5.70;;
2111;SDS011;1062;52.538;13.400;2023-12-20T00:50:06;5.60;;;5.10;;
2111;SDS011;1062;52.538;13.400;2023-12-20T00:52:32;6.70;;;5.83;;
2111;SDS011;1062;52.538;13.400;2023-12-20T00:54:58;6.97;;;6.27;;
2111;SDS011;1062;52.538;13.400;2023-12-20T00:57:23;5.03;;;4.53;;
2111;SDS011;1062;52.538;13.400;2023-12-20T00:59:49;5.70;;;5.20;;
2111;SDS011;1062;52.538;13.400;2023-12-20T01:02:14;6.80;;;5.30;;
2111;SDS011;1062;52.538;13.400;2023-12-20T01:04:40;5.43;;;4.90;;
2111;SDS011;1062;52.538;13.400;2023-12-20T01:07:05;6.23;;;5.27;;
2111;SDS011;1062;52.538;13.400;2023-12-20T01:09:31;8.53;;;6.37;;
2111;SDS011;1062;52.538;13.400;2023-12-20T01:11:56;7.60;;;6.17;;
2111;SDS011;1062;52.538;13.400;2023-12-20T01:14:22;6.67;;;5.97;;
2111;SDS011;1062;52.538;13.400;2023-12-20T01:16:48;6.83;;;5.43;;
2111;SDS011;1062;52.538;13.400;2023-12-20T01:19:13;6.60;;;5.90;;
2111;SDS011;1062;52.538;13.400;2023-12-20T01:21:39;7.43;;;5.80;;
2111;SDS011;1062;52.538;13.400;2023-12-20T01:24:05;6.60;;;5.90;;
2111;SDS011;1062;52.538;13.400;2023-12-20T01:26:31;6.67;;;5.60;;
2111;SDS011;1062;52.538;13.400;2023-12-20T01:28:56;6.97;;;5.93;;
2111;SDS011;1062;52.538;13.400;2023-12-20T01:31:22;6.77;;;6.07;;
2111;SDS011;1062;52.538;13.400;2023-12-20T01:33:48;6.50;;;5.90;;
2111;SDS011;1062;52.538;13.400;2023-12-20T01:36:13;6.67;;;5.50;;
2111;SDS011;1062;52.538;13.400;2023-12-20T01:38:39;7.70;;;6.40;;
2111;SDS011;1062;52.538;13.400;2023-12-20T01:41:05;9.03;;;5.87;;
2111;SDS011;1062;52.538;13.400;2023-12-20T01:43:30;7.17;;;5.60;;
2111;SDS011;1062;52.538;13.400;2023-12-20T01:45:56;5.50;;;4.80;;
2111;SDS011;1062;52.538;13.400;2023-12-20T01:48:23;5.23;;;4.70;;
2111;SDS011;1062;52.538;13.400;2023-12-20T01:50:52;5.50;;;5.00;;
2111;SDS011;1062;52.538;13.400;2023-12-20T01:53:20;7.00;;;5.70;;
2111;SDS011;1062;52.538;13.400;2023-12-20T01:55:49;7.53;;;5.57;;
2111;SDS011;1062;52.538;13.400;2023-12-20T01:58:17;5.67;;;5.10;;
2111;SDS011;1062;52.538;13.400;2023-12-20T02:00:43;6.00;;;4.80;;
2111;SDS011;1062;52.538;13.400;2023-12-20T02:03:09;4.77;;;4.27;;
2111;SDS011;1062;52.538;13.400;2023-12-20T02:05:35;4.53;;;4.13;;
2111;SDS011;1062;52.538;13.400;2023-12-20T02:08:02;3.83;;;3.43;;
2111;SDS011;1062;52.538;13.400;2023-12-20T02:10:28;4.30;;;3.47;;
2111;SDS011;1062;52.538;13.400;2023-12-20T02:12:54;5.27;;;4.60;;
2111;SDS011;1062;52.538;13.400;2023-12-20T02:15:19;4.83;;;3.43;;
2111;SDS011;1062;52.538;13.400;2023-12-20T02:17:46;5.73;;;3.57;;
2111;SDS011;1062;52.538;13.400;2023-12-20T02:20:13;6.50;;;2.93;;
2111;SDS011;1062;52.538;13.400;2023-12-20T02:22:39;3.30;;;2.80;;
2111;SDS011;1062;52.538;13.400;2023-12-20T02:25:05;4.73;;;1.80;;
2111;SDS011;1062;52.538;13.400;2023-12-20T02:27:31;4.43;;;1.67;;
2111;SDS011;1062;52.538;13.400;2023-12-20T02:29:56;2.53;;;2.27;;
2111;SDS011;1062;52.538;13.400;2023-12-20T02:32:22;2.83;;;1.37;;
2111;SDS011;1062;52.538;13.400;2023-12-20T02:34:52;2.40;;;2.07;;
2111;SDS011;1062;52.538;13.400;2023-12-20T02:37:18;3.40;;;2.23;;
2111;SDS011;1062;52.538;13.400;2023-12-20T02:39:43;2.77;;;2.53;;
2111;SDS011;1062;52.538;13.400;2023-12-20T02:42:09;3.20;;;2.70;;
2111;SDS011;1062;52.538;13.400;2023-12-20T02:44:35;4.60;;;2.90;;
2111;SDS011;1062;52.538;13.400;2023-12-20T02:47:01;3.13;;;2.73;;
2111;SDS011;1062;52.538;13.400;2023-12-20T02:49:27;3.23;;;2.90;;
2111;SDS011;1062;52.538;13.400;2023-12-20T02:51:52;3.03;;;2.30;;
2111;SDS011;1062;52.538;13.400;2023-12-20T02:54:18;4.10;;;3.70;;
2111;SDS011;1062;52.538;13.400;2023-12-20T02:56:43;3.30;;;3.00;;
2111;SDS011;1062;52.538;13.400;2023-12-20T02:59:09;5.80;;;4.10;;
2111;SDS011;1062;52.538;13.400;2023-12-20T03:01:35;5.60;;;4.03;;
2111;SDS011;1062;52.538;13.400;2023-12-20T03:04:06;6.43;;;4.30;;
2111;SDS011;1062;52.538;13.400;2023-12-20T03:06:31;4.57;;;3.70;;
2111;SDS011;1062;52.538;13.400;2023-12-20T03:08:57;5.83;;;4.03;;
2111;SDS011;1062;52.538;13.400;2023-12-20T03:11:26;6.60;;;3.50;;
2111;SDS011;1062;52.538;13.400;2023-12-20T03:13:52;4.07;;;3.67;;
2111;SDS011;1062;52.538;13.400;2023-12-20T03:16:18;5.77;;;3.90;;
2111;SDS011;1062;52.538;13.400;2023-12-20T03:18:43;4.23;;;3.70;;
2111;SDS011;1062;52.538;13.400;2023-12-20T03:21:09;5.43;;;3.77;;
2111;SDS011;1062;52.538;13.400;2023-12-20T03:23:35;6.33;;;3.40;;
2111;SDS011;1062;52.538;13.400;2023-12-20T03:26:00;4.37;;;2.90;;
2111;SDS011;1062;52.538;13.400;2023-12-20T03:28:26;3.50;;;2.90;;
2111;SDS011;1062;52.538;13.400;2023-12-20T03:30:52;3.60;;;2.50;;
2111;SDS011;1062;52.538;13.400;2023-12-20T03:33:18;2.83;;;2.40;;
2111;SDS011;1062;52.538;13.400;2023-12-20T03:35:43;6.70;;;2.30;;
2111;SDS011;1062;52.538;13.400;2023-12-20T03:38:09;3.90;;;2.83;;
2111;SDS011;1062;52.538;13.400;2023-12-20T03:40:35;5.63;;;3.20;;
2111;SDS011;1062;52.538;13.400;2023-12-20T03:43:00;4.20;;;2.90;;
2111;SDS011;1062;52.538;13.400;2023-12-20T03:45:26;4.03;;;2.70;;
2111;SDS011;1062;52.538;13.400;2023-12-20T03:47:51;4.10;;;2.97;;
2111;SDS011;1062;52.538;13.400;2023-12-20T03:50:22;2.80;;;1.83;;
2111;SDS011;1062;52.538;13.400;2023-12-20T03:52:48;5.73;;;3.07;;
2111;SDS011;1062;52.538;13.400;2023-12-20T03:55:13;3.10;;;2.30;;
2111;SDS011;1062;52.538;13.400;2023-12-20T03:57:40;4.73;;;2.37;;
2111;SDS011;1062;52.538;13.400;2023-12-20T04:00:06;7.43;;;3.53;;
2111;SDS011;1062;52.538;13.400;2023-12-20T04:02:38;3.77;;;2.30;;
2111;SDS011;1062;52.538;13.400;2023-12-20T04:05:05;7.57;;;2.80;;
2111;SDS011;1062;52.538;13.400;2023-12-20T04:07:31;5.70;;;2.17;;
2111;SDS011;1062;52.538;13.400;2023-12-20T04:09:57;4.80;;;2.17;;
2111;SDS011;1062;52.538;13.400;2023-12-20T04:12:22;4.37;;;2.23;;
2111;SDS011;1062;52.538;13.400;2023-12-20T04:14:48;6.53;;;1.93;;
2111;SDS011;1062;52.538;13.400;2023-12-20T04:17:14;4.37;;;2.07;;
2111;SDS011;1062;52.538;13.400;2023-12-20T04:19:41;6.37;;;2.30;;
2111;SDS011;1062;52.538;13.400;2023-12-20T04:22:07;7.80;;;2.30;;
2111;SDS011;1062;52.538;13.400;2023-12-20T04:24:32;5.80;;;1.80;;
2111;SDS011;1062;52.538;13.400;2023-12-20T04:26:58;7.23;;;2.33;;
2111;SDS011;1062;52.538;13.400;2023-12-20T04:29:24;3.97;;;1.80;;
2111;SDS011;1062;52.538;13.400;2023-12-20T04:31:49;2.90;;;1.90;;
2111;SDS011;1062;52.538;13.400;2023-12-20T04:34:16;2.93;;;1.80;;
2111;SDS011;1062;52.538;13.400;2023-12-20T04:36:42;11.37;;;2.30;;
2111;SDS011;1062;52.538;13.400;2023-12-20T04:39:08;5.47;;;2.10;;
2111;SDS011;1062;52.538;13.400;2023-12-20T04:41:33;5.27;;;2.17;;
2111;SDS011;1062;52.538;13.400;2023-12-20T04:43:59;4.80;;;1.73;;
2111;SDS011;1062;52.538;13.400;2023-12-20T04:46:25;5.70;;;2.20;;
2111;SDS011;1062;52.538;13.400;2023-12-20T04:48:51;4.90;;;1.90;;
2111;SDS011;1062;52.538;13.400;2023-12-20T04:51:17;5.13;;;1.90;;
2111;SDS011;1062;52.538;13.400;2023-12-20T04:53:42;3.17;;;1.60;;
2111;SDS011;1062;52.538;13.400;2023-12-20T04:56:08;9.90;;;1.93;;
2111;SDS011;1062;52.538;13.400;2023-12-20T04:58:33;7.70;;;1.93;;
2111;SDS011;1062;52.538;13.400;2023-12-20T05:00:59;7.73;;;2.37;;
2111;SDS011;1062;52.538;13.400;2023-12-20T05:03:25;3.77;;;2.40;;
2111;SDS011;1062;52.538;13.400;2023-12-20T05:05:50;7.30;;;2.07;;
2111;SDS011;1062;52.538;13.400;2023-12-20T05:08:16;7.87;;;2.77;;
2111;SDS011;1062;52.538;13.400;2023-12-20T05:10:41;7.57;;;2.30;;
2111;SDS011;1062;52.538;13.400;2023-12-20T05:13:07;6.80;;;3.47;;
2111;SDS011;1062;52.538;13.400;2023-12-20T05:15:32;7.43;;;2.40;;
2111;SDS011;1062;52.538;13.400;2023-12-20T05:17:58;12.40;;;3.20;;
2111;SDS011;1062;52.538;13.400;2023-12-20T05:20:24;12.43;;;2.80;;
2111;SDS011;1062;52.538;13.400;2023-12-20T05:22:49;8.03;;;2.80;;
2111;SDS011;1062;52.538;13.400;2023-12-20T05:25:15;13.03;;;4.40;;
2111;SDS011;1062;52.538;13.400;2023-12-20T05:27:40;3.70;;;2.80;;
2111;SDS011;1062;52.538;13.400;2023-12-20T05:30:06;4.73;;;2.00;;
2111;SDS011;1062;52.538;13.400;2023-12-20T05:32:32;7.17;;;2.50;;
2111;SDS011;1062;52.538;13.400;2023-12-20T05:34:58;6.27;;;2.90;;
2111;SDS011;1062;52.538;13.400;2023-12-20T05:37:23;6.30;;;2.60;;
2111;SDS011;1062;52.538;13.400;2023-12-20T05:39:49;3.73;;;1.70;;
2111;SDS011;1062;52.538;13.400;2023-12-20T05:42:14;3.37;;;2.37;;
2111;SDS011;1062;52.538;13.400;2023-12-20T05:44:40;5.67;;;2.37;;
2111;SDS011;1062;52.538;13.400;2023-12-20T05:47:05;4.93;;;2.73;;
2111;SDS011;1062;52.538;13.400;2023-12-20T05:49:31;10.00;;;2.33;;
2111;SDS011;1062;52.538;13.400;2023-12-20T05:51:57;4.60;;;2.33;;
2111;SDS011;1062;52.538;13.400;2023-12-20T05:54:22;12.60;;;3.17;;
2111;SDS011;1062;52.538;13.400;2023-12-20T05:56:48;4.23;;;2.50;;
2111;SDS011;1062;52.538;13.400;2023-12-20T05:59:13;6.10;;;2.13;;
2111;SDS011;1062;52.538;13.400;2023-12-20T06:01:39;11.63;;;2.63;;
2111;SDS011;1062;52.538;13.400;2023-12-20T06:04:05;4.67;;;1.90;;
2111;SDS011;1062;52.538;13.400;2023-12-20T06:06:30;4.90;;;2.00;;
2111;SDS011;1062;52.538;13.400;2023-12-20T06:08:56;4.07;;;2.13;;
2111;SDS011;1062;52.538;13.400;2023-12-20T06:11:22;5.23;;;2.10;;
2111;SDS011;1062;52.538;13.400;2023-12-20T06:13:48;7.23;;;2.67;;
2111;SDS011;1062;52.538;13.400;2023-12-20T06:16:17;5.40;;;2.47;;
2111;SDS011;1062;52.538;13.400;2023-12-20T06:18:43;4.60;;;2.50;;
2111;SDS011;1062;52.538;13.400;2023-12-20T06:21:08;8.90;;;3.30;;
2111;SDS011;1062;52.538;13.400;2023-12-20T06:23:37;7.87;;;2.20;;
2111;SDS011;1062;52.538;13.400;2023-12-20T06:26:03;9.63;;;1.97;;
2111;SDS011;1062;52.538;13.400;2023-12-20T06:28:29;9.40;;;2.77;;
2111;SDS011;1062;52.538;13.400;2023-12-20T06:30:54;7.73;;;2.03;;
2111;SDS011;1062;52.538;13.400;2023-12-20T06:33:20;8.97;;;3.60;;
2111;SDS011;1062;52.538;13.400;2023-12-20T06:35:47;7.70;;;3.00;;
2111;SDS011;1062;52.538;13.400;2023-12-20T06:38:13;4.40;;;2.30;;
2111;SDS011;1062;52.538;13.400;2023-12-20T06:40:38;7.60;;;2.43;;
2111;SDS011;1062;52.538;13.400;2023-12-20T06:43:04;2.27;;;1.70;;
2111;SDS011;1062;52.538;13.400;2023-12-20T06:45:31;5.07;;;2.47;;
2111;SDS011;1062;52.538;13.400;2023-12-20T06:47:57;5.63;;;2.77;;
2111;SDS011;1062;52.538;13.400;2023-12-20T06:50:23;9.60;;;2.93;;
2111;SDS011;1062;52.538;13.400;2023-12-20T06:52:49;11.27;;;2.43;;
2111;SDS011;1062;52.538;13.400;2023-12-20T06:55:14;5.10;;;2.20;;
2111;SDS011;1062;52.538;13.400;2023-12-20T06:57:40;8.50;;;2.10;;
2111;SDS011;1062;52.538;13.400;2023-12-20T07:00:06;3.97;;;2.03;;
2111;SDS011;1062;52.538;13.400;2023-12-20T07:02:33;4.87;;;2.13;;
2111;SDS011;1062;52.538;13.400;2023-12-20T07:04:59;5.10;;;2.20;;
2111;SDS011;1062;52.538;13.400;2023-12-20T07:07:25;4.30;;;1.90;;
2111;SDS011;1062;52.538;13.400;2023-12-20T07:09:51;4.37;;;2.07;;
2111;SDS011;1062;52.538;13.400;2023-12-20T07:12:16;10.57;;;2.50;;
2111;SDS011;1062;52.538;13.400;2023-12-20T07:14:44;8.93;;;2.17;;
2111;SDS011;1062;52.538;13.400;2023-12-20T07:17:10;8.70;;;2.50;;
2111;SDS011;1062;52.538;13.400;2023-12-20T07:19:38;12.60;;;4.07;;
2111;SDS011;1062;52.538;13.400;2023-12-20T07:22:05;8.70;;;3.63;;
2111;SDS011;1062;52.538;13.400;2023-12-20T07:24:31;5.87;;;3.57;;
2111;SDS011;1062;52.538;13.400;2023-12-20T07:26:57;9.10;;;3.60;;
2111;SDS011;1062;52.538;13.400;2023-12-20T07:29:24;9.57;;;2.80;;
2111;SDS011;1062;52.538;13.400;2023-12-20T07:31:50;4.23;;;3.07;;
2111;SDS011;1062;52.538;13.400;2023-12-20T07:34:17;9.27;;;3.40;;
2111;SDS011;1062;52.538;13.400;2023-12-20T07:36:42;2.73;;;2.20;;
2111;SDS011;1062;52.538;13.400;2023-12-20T07:39:08;5.77;;;2.30;;
2111;SDS011;1062;52.538;13.400;2023-12-20T07:41:34;10.00;;;3.37;;
2111;SDS011;1062;52.538;13.400;2023-12-20T07:43:59;3.40;;;2.10;;
2111;SDS011;1062;52.538;13.400;2023-12-20T07:46:25;10.97;;;2.80;;
2111;SDS011;1062;52.538;13.400;2023-12-20T07:48:50;3.77;;;2.13;;
2111;SDS011;1062;52.538;13.400;2023-12-20T07:51:16;6.20;;;2.67;;
2111;SDS011;1062;52.538;13.400;2023-12-20T07:53:42;9.07;;;4.00;;
2111;SDS011;1062;52.538;13.400;2023-12-20T07:56:17;9.50;;;3.83;;
2111;SDS011;1062;52.538;13.400;2023-12-20T07:58:44;9.80;;;3.53;;
2111;SDS011;1062;52.538;13.400;2023-12-20T08:01:11;9.33;;;3.60;;
2111;SDS011;1062;52.538;13.400;2023-12-20T08:03:36;15.17;;;4.23;;
2111;SDS011;1062;52.538;13.400;2023-12-20T08:06:03;10.37;;;3.60;;
2111;SDS011;1062;52.538;13.400;2023-12-20T08:08:28;14.20;;;3.00;;
2111;SDS011;1062;52.538;13.400;2023-12-20T08:10:54;5.77;;;2.10;;
2111;SDS011;1062;52.538;13.400;2023-12-20T08:13:20;8.93;;;2.47;;
2111;SDS011;1062;52.538;13.400;2023-12-20T08:15:50;9.10;;;3.50;;
2111;SDS011;1062;52.538;13.400;2023-12-20T08:18:15;6.43;;;2.27;;
2111;SDS011;1062;52.538;13.400;2023-12-20T08:20:41;2.73;;;1.83;;
2111;SDS011;1062;52.538;13.400;2023-12-20T08:23:06;4.10;;;1.70;;
2111;SDS011;1062;52.538;13.400;2023-12-20T08:25:32;4.60;;;1.80;;
2111;SDS011;1062;52.538;13.400;2023-12-20T08:27:57;3.63;;;1.80;;
2111;SDS011;1062;52.538;13.400;2023-12-20T08:30:23;5.77;;;2.77;;
2111;SDS011;1062;52.538;13.400;2023-12-20T08:32:50;8.00;;;2.60;;
2111;SDS011;1062;52.538;13.400;2023-12-20T08:35:16;10.60;;;2.50;;
2111;SDS011;1062;52.538;13.400;2023-12-20T08:37:42;4.00;;;1.77;;
2111;SDS011;1062;52.538;13.400;2023-12-20T08:40:08;10.33;;;2.33;;
2111;SDS011;1062;52.538;13.400;2023-12-20T08:42:34;4.70;;;2.10;;
2111;SDS011;1062;52.538;13.400;2023-12-20T08:45:00;3.87;;;2.00;;
2111;SDS011;1062;52.538;13.400;2023-12-20T08:47:26;8.43;;;3.13;;
2111;SDS011;1062;52.538;13.400;2023-12-20T08:49:51;6.50;;;2.20;;
2111;SDS011;1062;52.538;13.400;2023-12-20T08:52:21;7.80;;;2.50;;
2111;SDS011;1062;52.538;13.400;2023-12-20T08:54:48;14.77;;;2.40;;
2111;SDS011;1062;52.538;13.400;2023-12-20T08:57:13;7.30;;;1.90;;
2111;SDS011;1062;52.538;13.400;2023-12-20T08:59:39;8.83;;;2.00;;
2111;SDS011;1062;52.538;13.400;2023-12-20T09:02:05;7.50;;;3.00;;
2111;SDS011;1062;52.538;13.400;2023-12-20T09:04:30;3.60;;;1.77;;
2111;SDS011;1062;52.538;13.400;2023-12-20T09:06:56;4.40;;;2.07;;
2111;SDS011;1062;52.538;13.400;2023-12-20T09:09:24;7.30;;;2.03;;
2111;SDS011;1062;52.538;13.400;2023-12-20T09:11:50;8.30;;;2.40;;
2111;SDS011;1062;52.538;13.400;2023-12-20T09:14:16;8.07;;;2.03;;
2111;SDS011;1062;52.538;13.400;2023-12-20T09:16:42;3.80;;;1.93;;
2111;SDS011;1062;52.538;13.400;2023-12-20T09:19:07;6.70;;;3.60;;
2111;SDS011;1062;52.538;13.400;2023-12-20T09:21:33;5.90;;;1.90;;
2111;SDS011;1062;52.538;13.400;2023-12-20T09:23:58;3.30;;;1.73;;
2111;SDS011;1062;52.538;13.400;2023-12-20T09:26:24;10.70;;;2.40;;
2111;SDS011;1062;52.538;13.400;2023-12-20T09:28:49;12.80;;;3.20;;
2111;SDS011;1062;52.538;13.400;2023-12-20T09:31:15;10.23;;;1.80;;
2111;SDS011;1062;52.538;13.400;2023-12-20T09:33:41;4.43;;;2.07;;
2111;SDS011;1062;52.538;13.400;2023-12-20T09:36:06;13.07;;;2.43;;
2111;SDS011;1062;52.538;13.400;2023-12-20T09:38:32;12.23;;;3.17;;
2111;SDS011;1062;52.538;13.400;2023-12-20T09:40:58;6.50;;;1.90;;
2111;SDS011;1062;52.538;13.400;2023-12-20T09:43:24;7.57;;;1.93;;
2111;SDS011;1062;52.538;13.400;2023-12-20T09:45:54;5.47;;;2.07;;
2111;SDS011;1062;52.538;13.400;2023-12-20T09:48:27;5.60;;;2.50;;
2111;SDS011;1062;52.538;13.400;2023-12-20T09:50:53;3.83;;;2.23;;
2111;SDS011;1062;52.538;13.400;2023-12-20T09:53:19;12.53;;;2.37;;
2111;SDS011;1062;52.538;13.400;2023-12-20T09:55:48;5.30;;;2.50;;
2111;SDS011;1062;52.538;13.400;2023-12-20T09:58:14;3.47;;;2.10;;
2111;SDS011;1062;52.538;13.400;2023-12-20T10:00:40;17.20;;;2.60;;
2111;SDS011;1062;52.538;13.400;2023-12-20T10:03:06;7.10;;;2.10;;
2111;SDS011;1062;52.538;13.400;2023-12-20T10:05:32;6.77;;;2.20;;
2111;SDS011;1062;52.538;13.400;2023-12-20T10:07:59;4.80;;;2.23;;
2111;SDS011;1062;52.538;13.400;2023-12-20T10:10:26;7.40;;;2.50;;
2111;SDS011;1062;52.538;13.400;2023-12-20T10:13:01;18.33;;;3.20;;
2111;SDS011;1062;52.538;13.400;2023-12-20T10:15:33;7.30;;;2.87;;
2111;SDS011;1062;52.538;13.400;2023-12-20T10:17:59;5.13;;;2.03;;
2111;SDS011;1062;52.538;13.400;2023-12-20T10:20:26;5.27;;;2.10;;
2111;SDS011;1062;52.538;13.400;2023-12-20T10:22:54;6.43;;;2.37;;
2111;SDS011;1062;52.538;13.400;2023-12-20T10:25:23;7.27;;;2.10;;
2111;SDS011;1062;52.538;13.400;2023-12-20T10:27:49;9.80;;;1.97;;
2111;SDS011;1062;52.538;13.400;2023-12-20T10:30:22;4.90;;;1.83;;
2111;SDS011;1062;52.538;13.400;2023-12-20T10:32:49;7.80;;;2.27;;
2111;SDS011;1062;52.538;13.400;2023-12-20T10:35:16;6.17;;;2.70;;
2111;SDS011;1062;52.538;13.400;2023-12-20T10:37:41;8.50;;;3.20;;
2111;SDS011;1062;52.538;13.400;2023-12-20T10:40:07;5.57;;;2.60;;
2111;SDS011;1062;52.538;13.400;2023-12-20T10:42:33;6.23;;;2.50;;
2111;SDS011;1062;52.538;13.400;2023-12-20T10:45:01;5.30;;;2.43;;
2111;SDS011;1062;52.538;13.400;2023-12-20T10:47:26;6.70;;;2.33;;
2111;SDS011;1062;52.538;13.400;2023-12-20T10:49:54;7.17;;;2.40;;
2111;SDS011;1062;52.538;13.400;2023-12-20T10:52:22;6.63;;;2.20;;
2111;SDS011;1062;52.538;13.400;2023-12-20T10:54:49;4.50;;;1.77;;
2111;SDS011;1062;52.538;13.400;2023-12-20T10:57:15;9.50;;;2.20;;
2111;SDS011;1062;52.538;13.400;2023-12-20T10:59:43;6.00;;;2.13;;
2111;SDS011;1062;52.538;13.400;2023-12-20T11:02:14;8.70;;;2.10;;
2111;SDS011;1062;52.538;13.400;2023-12-20T11:07:25;9.53;;;2.30;;
2111;SDS011;1062;52.538;13.400;2023-12-20T11:09:58;8.47;;;2.20;;
2111;SDS011;1062;52.538;13.400;2023-12-20T11:12:41;6.60;;;2.40;;
2111;SDS011;1062;52.538;13.400;2023-12-20T11:15:13;3.17;;;1.73;;
2111;SDS011;1062;52.538;13.400;2023-12-20T11:17:41;4.47;;;2.37;;
2111;SDS011;1062;52.538;13.400;2023-12-20T11:20:11;29.17;;;16.93;;
2111;SDS011;1062;52.538;13.400;2023-12-20T11:22:37;14.60;;;7.00;;
2111;SDS011;1062;52.538;13.400;2023-12-20T11:27:33;4.00;;;2.17;;
2111;SDS011;1062;52.538;13.400;2023-12-20T11:29:59;5.83;;;2.70;;
2111;SDS011;1062;52.538;13.400;2023-12-20T11:32:28;9.57;;;2.83;;
2111;SDS011;1062;52.538;13.400;2023-12-20T11:34:55;7.43;;;2.97;;
2111;SDS011;1062;52.538;13.400;2023-12-20T11:37:29;6.60;;;2.20;;
2111;SDS011;1062;52.538;13.400;2023-12-20T11:40:07;8.80;;;2.60;;
2111;SDS011;1062;52.538;13.400;2023-12-20T11:42:39;4.33;;;2.77;;
2111;SDS011;1062;52.538;13.400;2023-12-20T11:45:21;6.33;;;2.80;;
2111;SDS011;1062;52.538;13.400;2023-12-20T11:47:49;5.23;;;2.23;;
2111;SDS011;1062;52.538;13.400;2023-12-20T11:50:16;6.13;;;2.43;;
2111;SDS011;1062;52.538;13.400;2023-12-20T11:52:42;5.20;;;3.03;;
2111;SDS011;1062;52.538;13.400;2023-12-20T11:55:08;9.43;;;3.27;;
2111;SDS011;1062;52.538;13.400;2023-12-20T11:57:34;10.20;;;2.77;;
2111;SDS011;1062;52.538;13.400;2023-12-20T12:00:00;6.93;;;2.37;;
2111;SDS011;1062;52.538;13.400;2023-12-20T12:02:27;8.20;;;3.00;;
2111;SDS011;1062;52.538;13.400;2023-12-20T12:04:53;5.80;;;2.43;;
2111;SDS011;1062;52.538;13.400;2023-12-20T12:07:21;9.97;;;2.37;;
2111;SDS011;1062;52.538;13.400;2023-12-20T12:09:47;6.37;;;2.50;;
2111;SDS011;1062;52.538;13.400;2023-12-20T12:12:13;5.13;;;2.17;;
2111;SDS011;1062;52.538;13.400;2023-12-20T12:14:39;2.50;;;1.77;;
2111;SDS011;1062;52.538;13.400;2023-12-20T12:17:15;3.43;;;1.87;;
2111;SDS011;1062;52.538;13.400;2023-12-20T12:19:41;4.30;;;2.00;;
2111;SDS011;1062;52.538;13.400;2023-12-20T12:22:11;3.47;;;1.73;;
2111;SDS011;1062;52.538;13.400;2023-12-20T12:24:46;7.00;;;2.53;;
2111;SDS011;1062;52.538;13.400;2023-12-20T12:27:12;6.00;;;2.63;;
2111;SDS011;1062;52.538;13.400;2023-12-20T12:29:38;5.37;;;2.27;;
2111;SDS011;1062;52.538;13.400;2023-12-20T12:32:07;6.23;;;2.03;;
2111;SDS011;1062;52.538;13.400;2023-12-20T12:34:34;5.10;;;2.37;;
2111;SDS011;1062;52.538;13.400;2023-12-20T12:37:00;4.70;;;3.00;;
2111;SDS011;1062;52.538;13.400;2023-12-20T12:39:26;5.43;;;1.80;;
2111;SDS011;1062;52.538;13.400;2023-12-20T12:41:52;5.23;;;2.57;;
2111;SDS011;1062;52.538;13.400;2023-12-20T12:44:18;7.00;;;2.13;;
2111;SDS011;1062;52.538;13.400;2023-12-20T12:46:45;5.30;;;2.00;;
2111;SDS011;1062;52.538;13.400;2023-12-20T12:49:12;4.40;;;1.90;;
2111;SDS011;1062;52.538;13.400;2023-12-20T12:51:38;4.33;;;2.37;;
2111;SDS011;1062;52.538;13.400;2023-12-20T12:54:03;4.33;;;2.33;;
2111;SDS011;1062;52.538;13.400;2023-12-20T12:56:29;6.10;;;2.63;;
2111;SDS011;1062;52.538;13.400;2023-12-20T12:58:55;9.10;;;2.83;;
2111;SDS011;1062;52.538;13.400;2023-12-20T13:01:21;7.67;;;2.87;;
2111;SDS011;1062;52.538;13.400;2023-12-20T13:03:47;8.90;;;3.33;;
2111;SDS011;1062;52.538;13.400;2023-12-20T13:06:12;6.13;;;2.60;;
2111;SDS011;1062;52.538;13.400;2023-12-20T13:08:38;7.60;;;2.70;;
2111;SDS011;1062;52.538;13.400;2023-12-20T13:11:04;6.53;;;2.90;;
2111;SDS011;1062;52.538;13.400;2023-12-20T13:13:30;6.73;;;2.60;;
2111;SDS011;1062;52.538;13.400;2023-12-20T13:15:56;5.67;;;2.70;;
2111;SDS011;1062;52.538;13.400;2023-12-20T13:18:22;5.70;;;3.10;;
2111;SDS011;1062;52.538;13.400;2023-12-20T13:20:48;4.50;;;2.90;;
2111;SDS011;1062;52.538;13.400;2023-12-20T13:23:13;6.03;;;2.90;;
2111;SDS011;1062;52.538;13.400;2023-12-20T13:25:40;3.30;;;2.23;;
2111;SDS011;1062;52.538;13.400;2023-12-20T13:28:06;4.70;;;2.33;;
2111;SDS011;1062;52.538;13.400;2023-12-20T13:30:33;2.17;;;1.70;;
2111;SDS011;1062;52.538;13.400;2023-12-20T13:32:59;1.87;;;1.63;;
2111;SDS011;1062;52.538;13.400;2023-12-20T13:35:25;1.50;;;1.30;;
2111;SDS011;1062;52.538;13.400;2023-12-20T13:37:50;1.53;;;1.10;;
2111;SDS011;1062;52.538;13.400;2023-12-20T13:40:16;3.83;;;1.83;;
2111;SDS011;1062;52.538;13.400;2023-12-20T13:42:43;1.80;;;1.23;;
2111;SDS011;1062;52.538;13.400;2023-12-20T13:45:08;1.37;;;1.27;;
2111;SDS011;1062;52.538;13.400;2023-12-20T13:47:34;1.60;;;1.07;;
2111;SDS011;1062;52.538;13.400;2023-12-20T13:50:00;1.50;;;1.20;;
2111;SDS011;1062;52.538;13.400;2023-12-20T13:52:26;4.10;;;1.10;;
2111;SDS011;1062;52.538;13.400;2023-12-20T13:54:51;1.43;;;1.27;;
2111;SDS011;1062;52.538;13.400;2023-12-20T13:57:17;1.10;;;1.00;;
2111;SDS011;1062;52.538;13.400;2023-12-20T13:59:43;3.13;;;1.00;;
2111;SDS011;1062;52.538;13.400;2023-12-20T14:02:08;6.87;;;1.20;;
2111;SDS011;1062;52.538;13.400;2023-12-20T14:04:34;2.83;;;1.50;;
2111;SDS011;1062;52.538;13.400;2023-12-20T14:07:00;2.57;;;1.93;;
2111;SDS011;1062;52.538;13.400;2023-12-20T14:09:26;2.37;;;1.53;;
2111;SDS011;1062;52.538;13.400;2023-12-20T14:11:51;3.90;;;1.70;;
2111;SDS011;1062;52.538;13.400;2023-12-20T14:14:18;2.10;;;1.50;;
2111;SDS011;1062;52.538;13.400;2023-12-20T14:16:44;3.13;;;1.40;;
2111;SDS011;1062;52.538;13.400;2023-12-20T14:19:10;4.70;;;1.47;;
2111;SDS011;1062;52.538;13.400;2023-12-20T14:21:36;2.67;;;1.80;;
2111;SDS011;1062;52.538;13.400;2023-12-20T14:24:01;2.10;;;1.30;;
2111;SDS011;1062;52.538;13.400;2023-12-20T14:26:28;6.27;;;1.90;;
2111;SDS011;1062;52.538;13.400;2023-12-20T14:28:54;2.90;;;2.03;;
2111;SDS011;1062;52.538;13.400;2023-12-20T14:31:20;1.40;;;1.20;;
2111;SDS011;1062;52.538;13.400;2023-12-20T14:33:48;2.27;;;1.33;;
2111;SDS011;1062;52.538;13.400;2023-12-20T14:36:15;2.80;;;1.50;;
2111;SDS011;1062;52.538;13.400;2023-12-20T14:38:42;6.13;;;1.57;;
2111;SDS011;1062;52.538;13.400;2023-12-20T14:41:08;2.30;;;2.10;;
2111;SDS011;1062;52.538;13.400;2023-12-20T14:43:34;1.63;;;1.50;;
2111;SDS011;1062;52.538;13.400;2023-12-20T14:46:00;1.60;;;1.37;;
2111;SDS011;1062;52.538;13.400;2023-12-20T14:48:26;5.83;;;1.17;;
2111;SDS011;1062;52.538;13.400;2023-12-20T14:50:54;7.93;;;1.90;;
2111;SDS011;1062;52.538;13.400;2023-12-20T14:53:20;2.50;;;1.83;;
2111;SDS011;1062;52.538;13.400;2023-12-20T14:55:46;3.47;;;1.43;;
2111;SDS011;1062;52.538;13.400;2023-12-20T14:58:12;2.50;;;1.20;;
2111;SDS011;1062;52.538;13.400;2023-12-20T15:00:38;1.40;;;1.20;;